LDLO/LSZ METAR and TAF weather

Enter ICAO airport designator
Station Type Date Time Source
LDLO METAR 2019/12/01 19:00 UTC NOAA

LDLO 011900Z 16013KT 9999 SCT050 14/09 Q1018


Station Type Date Time Source
LDLO Decoded METAR 2019/12/01 19:00 UTC NOAA

Losinj Island, Croatia (LDLO) 44-33-57N 014-23-35E
Dec 01, 2019 - 02:00 PM EST / 2019.12.01 1900 UTC
Wind: from the SSE (160 degrees) at 15 MPH (13 KT):0
Visibility: greater than 7 mile(s):0
Sky conditions: partly cloudy
Temperature: 57 F (14 C)
Dew Point: 48 F (9 C)
Relative Humidity: 71%
Pressure (altimeter): 30.06 in. Hg (1018 hPa)
ob: LDLO 011900Z 16013KT 9999 SCT050 14/09 Q1018
cycle: 19

Station Type Date Time Source
LDLO TAF 2019/12/01 20:06 UTC NOAA

TAF
AMD LDLO 012004Z 0120/0218 CNL

Example: see airport list